Time;durP1;ratioP1;P1;durP2;ratioP2;P2;SDS_P1;SDS_P2;PMS_P1;PMS_P2;Temp;Humidity;BMP_temperature;BMP_pressure;BME280_temperature;BME280_humidity;BME280_pressure;Samples;Min_cycle;Max_cycle;Signal;HPM_P1;HPM_P2
2022/11/20 00:01:11;;;;;;;4.50;3.58;;;;;;;16.71;84.73;95707.94;5043787;28;20084;-49
2022/11/20 00:03:39;;;;;;;;;;;;;;;17.14;79.85;95699.63;5044284;28;20072;-42
2022/11/20 00:06:09;;;;;;;4.50;3.22;;;;;;;16.63;80.45;95699.31;5046277;28;19951;-42
2022/11/20 00:08:38;;;;;;;4.50;3.83;;;;;;;16.92;78.79;95701.66;5041001;28;20076;-44
2022/11/20 00:11:09;;;;;;;4.03;3.60;;;;;;;17.21;74.88;95705.78;5042934;28;20072;-47
2022/11/20 00:13:43;;;;;;;4.47;3.38;;;;;;;16.20;89.48;95712.88;5046606;28;20087;-41
2022/11/20 00:16:13;;;;;;;5.15;3.45;;;;;;;15.79;94.46;95716.31;5043140;28;20085;-43
2022/11/20 00:18:43;;;;;;;4.43;3.25;;;;;;;14.96;100.00;95719.53;5039809;28;20076;-45
2022/11/20 00:21:13;;;;;;;3.40;2.80;;;;;;;15.35;97.76;95723.56;5043386;28;20076;-40
2022/11/20 00:23:42;;;;;;;;;;;;;;;15.88;94.52;95718.66;5043871;28;20069;-40
2022/11/20 00:26:13;;;;;;;5.82;3.90;;;;;;;15.89;99.03;95725.59;5040491;28;19960;-40
2022/11/20 00:28:42;;;;;;;5.63;3.60;;;;;;;15.71;100.00;95722.63;5043922;28;20653;-42
2022/11/20 00:31:13;;;;;;;4.85;3.47;;;;;;;15.53;100.00;95724.94;5043558;28;20072;-41
2022/11/20 00:33:42;;;;;;;3.80;3.03;;;;;;;15.08;100.00;95729.69;5045007;28;20080;-42
2022/11/20 00:36:11;;;;;;;7.57;3.72;;;;;;;15.69;100.00;95730.00;5043727;28;20084;-41
2022/11/20 00:38:39;;;;;;;6.95;3.83;;;;;;;15.49;100.00;95723.69;5046256;28;20085;-45
2022/11/20 00:41:09;;;;;;;6.28;3.90;;;;;;;16.03;99.38;95731.00;5050276;28;20081;-42
2022/11/20 00:43:39;;;;;;;4.03;3.50;;;;;;;16.25;96.62;95723.75;5046627;28;20562;-43
2022/11/20 00:46:09;;;;;;;4.70;3.45;;;;;;;16.00;94.12;95721.59;5046226;28;20085;-46
2022/11/20 00:48:37;;;;;;;5.00;3.90;;;;;;;16.32;90.34;95725.41;5045420;28;20543;-39
2022/11/20 00:51:06;;;;;;;4.85;3.60;;;;;;;15.96;96.00;95725.63;5047993;28;20077;-41
2022/11/20 00:53:34;;;;;;;4.10;3.10;;;;;;;16.07;92.66;95727.75;5049161;28;20092;-47
2022/11/20 00:56:05;;;;;;;5.63;3.80;;;;;;;16.20;92.69;95732.31;5047754;28;20084;-41
2022/11/20 00:58:34;;;;;;;4.38;3.60;;;;;;;15.69;100.00;95737.13;5047745;28;20077;-41
2022/11/20 01:01:06;;;;;;;5.13;3.88;;;;;;;16.16;93.67;95740.88;5049307;28;20519;-40
2022/11/20 01:03:36;;;;;;;4.93;3.78;;;;;;;16.28;92.07;95729.50;5048561;28;20463;-45
2022/11/20 01:06:06;;;;;;;4.97;3.72;;;;;;;17.00;81.29;95722.78;5049315;28;20155;-39
2022/11/20 01:08:36;;;;;;;5.00;3.70;;;;;;;16.68;84.55;95726.97;5046911;28;20080;-41
2022/11/20 01:11:06;;;;;;;6.53;4.00;;;;;;;16.74;83.37;95730.69;5045591;28;20068;-40
2022/11/20 01:13:38;;;;;;;5.90;4.07;;;;;;;16.31;85.73;95736.25;5053208;28;20084;-41
2022/11/20 01:16:10;;;;;;;4.95;3.47;;;;;;;16.82;81.70;95736.66;5050477;28;20081;-43
2022/11/20 01:18:40;;;;;;;4.63;3.70;;;;;;;16.56;82.77;95736.56;5053114;28;20531;-40
2022/11/20 01:21:12;;;;;;;5.80;3.90;;;;;;;16.63;81.18;95740.06;5052168;28;20535;-41
2022/11/20 01:23:41;;;;;;;6.10;3.40;;;;;;;16.42;83.15;95742.88;5051177;28;20083;-44
2022/11/20 01:26:11;;;;;;;5.35;3.70;;;;;;;16.02;87.71;95747.97;5047024;28;20107;-48
2022/11/20 01:28:40;;;;;;;5.00;3.13;;;;;;;17.05;76.82;95743.47;5048380;28;20614;-44
2022/11/20 01:31:14;;;;;;;5.50;4.00;;;;;;;16.98;75.06;95737.31;5045732;28;20076;-46
2022/11/20 01:33:43;;;;;;;6.68;3.90;;;;;;;16.71;77.75;95742.53;5046939;28;20088;-42
2022/11/20 01:36:12;;;;;;;4.63;3.67;;;;;;;16.08;88.71;95748.00;5048330;28;20080;-42
2022/11/20 01:38:41;;;;;;;4.97;3.85;;;;;;;16.02;88.11;95746.13;5048180;28;20079;-45
2022/11/20 01:41:10;;;;;;;4.30;3.78;;;;;;;16.33;85.84;95745.66;5046984;28;20358;-42
2022/11/20 01:43:37;;;;;;;5.15;3.88;;;;;;;15.55;92.80;95746.81;5048095;28;20507;-42
2022/11/20 01:46:18;;;;;;;4.90;3.72;;;;;;;16.12;87.70;95748.44;5047329;28;20529;-41
2022/11/20 01:48:51;;;;;;;3.58;2.88;;;;;;;15.03;100.00;95748.81;5049557;28;20075;-43
2022/11/20 01:51:26;;;;;;;3.97;3.45;;;;;;;15.40;99.14;95744.25;5047968;28;20084;-41
2022/11/20 01:53:55;;;;;;;6.13;3.30;;;;;;;15.62;93.75;95752.97;5046843;28;20076;-43
2022/11/20 01:56:24;;;;;;;7.18;3.78;;;;;;;16.27;87.77;95751.78;5044618;28;20083;-48
2022/11/20 01:58:54;;;;;;;5.72;3.20;;;;;;;16.13;85.28;95750.06;5043726;28;20075;-42
2022/11/20 02:01:24;;;;;;;5.05;3.88;;;;;;;15.84;88.76;95756.47;5045235;28;20065;-42
2022/11/20 02:03:53;;;;;;;4.75;3.65;;;;;;;15.66;89.72;95752.47;5046846;28;20448;-41
2022/11/20 02:06:25;;;;;;;3.97;3.20;;;;;;;15.80;87.78;95749.91;5042055;28;20073;-45
2022/11/20 02:08:53;;;;;;;4.05;3.30;;;;;;;15.78;85.80;95755.38;5044888;28;20163;-40
2022/11/20 02:11:22;;;;;;;5.57;4.00;;;;;;;16.01;84.74;95755.13;5047664;28;20099;-41
2022/11/20 02:13:49;;;;;;;7.70;3.53;;;;;;;16.09;81.33;95746.97;5046245;28;20357;-40
2022/11/20 02:16:21;;;;;;;6.38;3.83;;;;;;;15.84;87.52;95754.63;5042951;28;20085;-44
2022/11/20 02:18:52;;;;;;;4.72;3.20;;;;;;;15.48;91.92;95749.41;5045364;28;20084;-41
2022/11/20 02:21:26;;;;;;;5.80;3.67;;;;;;;15.73;90.77;95752.50;5043707;28;20120;-46
2022/11/20 02:24:02;;;;;;;6.32;3.97;;;;;;;15.90;87.59;95759.16;5043192;28;20076;-43
2022/11/20 02:26:32;;;;;;;4.88;3.50;;;;;;;15.62;89.62;95750.31;5043685;28;20478;-43
2022/11/20 02:29:01;;;;;;;5.30;3.65;;;;;;;15.95;85.44;95758.56;5040976;28;20187;-45
2022/11/20 02:31:30;;;;;;;5.68;3.95;;;;;;;16.04;84.34;95754.75;5043363;28;20076;-43
2022/11/20 02:33:58;;;;;;;4.70;3.40;;;;;;;15.10;94.23;95755.00;5043616;28;20076;-40
2022/11/20 02:36:28;;;;;;;5.53;3.60;;;;;;;15.34;94.75;95752.97;5043742;28;20537;-40
2022/11/20 02:38:56;;;;;;;6.10;3.58;;;;;;;15.76;87.38;95757.44;5046168;28;20080;-43
2022/11/20 02:41:33;;;;;;;5.88;4.18;;;;;;;15.71;87.73;95749.22;5047829;28;20095;-43
2022/11/20 02:44:02;;;;;;;5.35;3.83;;;;;;;15.64;88.52;95754.44;5050043;28;20083;-40
2022/11/20 02:46:30;;;;;;;4.80;3.83;;;;;;;15.44;91.80;95751.63;5045769;28;20079;-43
2022/11/20 02:48:59;;;;;;;4.72;3.47;;;;;;;15.80;85.77;95750.72;5042708;28;20084;-40
2022/11/20 02:51:27;;;;;;;4.70;3.67;;;;;;;15.62;87.66;95753.84;5046529;28;20081;-41
2022/11/20 02:53:55;;;;;;;5.10;3.95;;;;;;;15.98;84.91;95749.38;5044582;28;20069;-42
2022/11/20 02:56:24;;;;;;;5.35;4.25;;;;;;;16.55;75.28;95756.19;5044317;28;20094;-41
2022/11/20 02:58:54;;;;;;;6.53;4.18;;;;;;;16.13;75.66;95747.41;5044711;28;20103;-40
2022/11/20 03:01:22;;;;;;;4.95;3.92;;;;;;;16.26;77.46;95746.66;5044173;28;20076;-40
2022/11/20 03:03:52;;;;;;;3.92;3.38;;;;;;;15.95;78.93;95745.28;5045586;28;20076;-46
2022/11/20 03:06:20;;;;;;;5.10;3.45;;;;;;;15.61;83.94;95749.50;5049978;28;20073;-39
2022/11/20 03:08:48;;;;;;;6.43;4.07;;;;;;;16.55;72.92;95749.06;5047957;28;20505;-41
2022/11/20 03:11:17;;;;;;;7.40;3.72;;;;;;;16.49;74.51;95746.38;5046767;28;20546;-42
2022/11/20 03:13:45;;;;;;;5.10;3.72;;;;;;;16.19;75.08;95746.63;5044460;28;20554;-43
2022/11/20 03:16:16;;;;;;;5.78;3.72;;;;;;;16.37;75.36;95749.56;5043833;28;20083;-40
2022/11/20 03:18:44;;;;;;;4.43;3.45;;;;;;;16.20;74.78;95747.44;5049835;28;20069;-40
2022/11/20 03:21:14;;;;;;;5.45;3.70;;;;;;;15.84;78.73;95749.31;5042243;28;20080;-40
2022/11/20 03:23:42;;;;;;;4.20;3.80;;;;;;;16.19;75.71;95741.31;5040821;28;20103;-41
2022/11/20 03:26:13;;;;;;;5.35;4.03;;;;;;;16.34;75.44;95741.16;5043425;28;20080;-45
2022/11/20 03:28:41;;;;;;;;;;;;;;;15.72;79.64;95748.19;5044577;28;20080;-41
2022/11/20 03:31:10;;;;;;;7.43;3.85;;;;;;;15.06;88.49;95751.09;5040715;28;20403;-42
2022/11/20 03:33:40;;;;;;;4.28;3.38;;;;;;;15.57;86.11;95752.75;5040876;28;20129;-46
2022/11/20 03:36:10;;;;;;;4.40;3.60;;;;;;;15.24;93.39;95753.28;5045221;28;20073;-40
2022/11/20 03:38:39;;;;;;;5.87;4.03;;;;;;;15.80;82.41;95755.22;5042630;28;20532;-40
2022/11/20 03:41:08;;;;;;;4.75;2.95;;;;;;;15.04;93.89;95757.63;5040948;28;20081;-41
2022/11/20 03:43:37;;;;;;;4.47;3.13;;;;;;;15.34;88.25;95752.97;5041894;28;20529;-40
2022/11/20 03:46:06;;;;;;;4.65;3.47;;;;;;;15.43;90.35;95751.84;5043011;28;20091;-41
2022/11/20 03:48:34;;;;;;;5.07;3.78;;;;;;;15.24;90.29;95758.59;5046558;28;20080;-43
2022/11/20 03:51:12;;;;;;;6.05;3.80;;;;;;;15.32;90.54;95745.22;5041805;28;20436;-41
2022/11/20 03:53:41;;;;;;;4.75;3.88;;;;;;;15.72;82.96;95742.88;5041805;28;20522;-44
2022/11/20 03:56:10;;;;;;;4.20;2.97;;;;;;;14.97;88.81;95749.59;5047559;28;20630;-42
2022/11/20 03:58:40;;;;;;;6.03;3.75;;;;;;;15.92;77.15;95739.53;5047803;28;20072;-44
2022/11/20 04:01:09;;;;;;;4.43;3.22;;;;;;;15.32;80.25;95753.19;5041254;28;20077;-43
2022/11/20 04:03:39;;;;;;;5.82;4.07;;;;;;;16.24;73.94;95749.53;5040979;28;20080;-40
2022/11/20 04:06:09;;;;;;;6.40;4.10;;;;;;;15.73;79.03;95752.50;5041402;28;20523;-42
2022/11/20 04:08:39;;;;;;;4.60;3.83;;;;;;;15.93;74.96;95749.13;5044327;28;20079;-42
2022/11/20 04:11:12;;;;;;;5.28;3.75;;;;;;;15.92;77.45;95755.47;5042422;28;20077;-42
2022/11/20 04:13:40;;;;;;;3.72;3.13;;;;;;;15.54;76.93;95753.13;5045567;28;20087;-43
2022/11/20 04:16:10;;;;;;;6.15;3.83;;;;;;;16.00;74.13;95758.81;5047638;28;20085;-40
2022/11/20 04:18:38;;;;;;;4.35;3.05;;;;;;;16.00;71.90;95748.19;5051718;28;20072;-43
2022/11/20 04:21:06;;;;;;;5.47;4.18;;;;;;;16.10;73.48;95753.97;5046094;28;20108;-43
2022/11/20 04:23:35;;;;;;;6.72;3.97;;;;;;;16.37;70.86;95760.22;5046139;28;20565;-41
2022/11/20 04:26:06;;;;;;;5.88;3.95;;;;;;;16.39;68.40;95754.72;5045846;28;20099;-41
2022/11/20 04:28:34;;;;;;;6.72;3.70;;;;;;;16.20;69.88;95755.44;5050128;28;20640;-43
2022/11/20 04:31:04;;;;;;;4.40;3.45;;;;;;;15.51;74.85;95753.53;5046160;28;20091;-42
2022/11/20 04:33:33;;;;;;;5.43;3.80;;;;;;;15.85;71.15;95758.91;5042638;28;20637;-42
2022/11/20 04:36:03;;;;;;;5.00;3.65;;;;;;;15.61;74.58;95757.47;5045907;28;20092;-39
2022/11/20 04:38:31;;;;;;;5.55;3.50;;;;;;;15.79;70.11;95750.88;5046530;28;20088;-42
2022/11/20 04:41:00;;;;;;;4.38;3.58;;;;;;;15.87;69.35;95751.56;5046526;28;20528;-46
2022/11/20 04:43:30;;;;;;;4.75;3.55;;;;;;;16.05;67.87;95748.41;5051902;28;20068;-41
2022/11/20 04:45:59;;;;;;;6.03;3.63;;;;;;;15.84;69.34;95751.16;5045536;28;20531;-43
2022/11/20 04:48:29;;;;;;;5.25;3.65;;;;;;;16.06;67.65;95746.56;5046570;28;20550;-40
2022/11/20 04:50:57;;;;;;;5.75;3.25;;;;;;;15.09;72.85;95755.22;5043658;28;20076;-43
2022/11/20 04:53:26;;;;;;;3.92;3.10;;;;;;;15.30;75.03;95759.69;5047390;28;20080;-39
2022/11/20 04:56:01;;;;;;;6.72;3.92;;;;;;;15.90;69.15;95755.69;5044932;28;20828;-43
2022/11/20 04:58:30;;;;;;;4.03;3.20;;;;;;;15.78;69.70;95752.72;5049955;28;20080;-41
2022/11/20 05:01:03;;;;;;;4.10;3.43;;;;;;;15.21;71.27;95751.03;5047840;28;20076;-38
2022/11/20 05:03:32;;;;;;;5.18;3.35;;;;;;;15.96;67.42;95754.06;5048081;28;20081;-45
2022/11/20 05:06:07;;;;;;;3.85;3.35;;;;;;;15.42;72.97;95750.19;5045496;28;20111;-42
2022/11/20 05:08:35;;;;;;;4.43;3.10;;;;;;;15.24;72.34;95763.09;5046963;28;20080;-43
2022/11/20 05:11:05;;;;;;;3.92;2.97;;;;;;;15.00;73.52;95751.03;5043734;28;20073;-39
2022/11/20 05:13:35;;;;;;;4.17;3.23;;;;;;;15.50;72.97;95758.03;5049281;28;20080;-43
2022/11/20 05:16:04;;;;;;;3.20;2.73;;;;;;;14.98;76.04;95755.72;5044192;28;20080;-43
2022/11/20 05:18:33;;;;;;;4.95;3.20;;;;;;;14.85;81.93;95764.38;5054254;28;20574;-46
2022/11/20 05:21:02;;;;;;;4.65;3.42;;;;;;;15.48;74.37;95756.56;5045251;28;20483;-43
2022/11/20 05:23:31;;;;;;;4.07;3.08;;;;;;;15.77;70.96;95756.41;5042496;28;20072;-43
2022/11/20 05:25:59;;;;;;;5.75;3.58;;;;;;;15.61;69.94;95761.97;5046151;28;20112;-39
2022/11/20 05:28:29;;;;;;;6.50;3.85;;;;;;;15.97;68.47;95769.84;5047059;28;20080;-42
2022/11/20 05:31:05;;;;;;;5.97;3.80;;;;;;;16.78;62.02;95748.72;5051837;28;20095;-46
2022/11/20 05:33:34;;;;;;;5.78;3.67;;;;;;;16.05;63.77;95751.06;5044013;28;20077;-41
2022/11/20 05:36:02;;;;;;;6.85;3.80;;;;;;;16.13;66.69;95756.22;5041349;28;20080;-43
2022/11/20 05:38:31;;;;;;;5.45;3.50;;;;;;;16.65;62.68;95756.63;5044203;28;20080;-48
2022/11/20 05:41:04;;;;;;;5.13;3.60;;;;;;;16.47;61.13;95754.53;5045185;28;20097;-40
2022/11/20 05:43:34;;;;;;;4.13;3.47;;;;;;;16.76;60.41;95744.66;5047667;28;20072;-42
2022/11/20 05:46:05;;;;;;;4.67;3.60;;;;;;;17.08;58.11;95735.91;5042747;28;20445;-42
2022/11/20 05:48:34;;;;;;;5.10;4.25;;;;;;;17.13;56.06;95743.25;5048578;28;20507;-41
2022/11/20 05:51:04;;;;;;;4.97;3.72;;;;;;;16.13;61.35;95745.56;5046837;28;20064;-46
2022/11/20 05:53:33;;;;;;;5.50;4.25;;;;;;;16.63;58.82;95742.72;5043415;28;20548;-40
2022/11/20 05:56:03;;;;;;;5.00;3.95;;;;;;;17.05;56.01;95735.47;5044555;28;20134;-50
2022/11/20 05:58:32;;;;;;;5.20;4.10;;;;;;;16.88;56.89;95747.53;5047248;28;20523;-40
2022/11/20 06:01:06;;;;;;;5.68;3.67;;;;;;;16.48;58.96;95758.84;5043404;28;20087;-41
2022/11/20 06:03:35;;;;;;;4.53;3.70;;;;;;;16.23;59.07;95757.69;5043671;28;20084;-40
2022/11/20 06:06:05;;;;;;;5.28;3.80;;;;;;;16.31;59.29;95757.53;5043547;28;20072;-44
2022/11/20 06:08:34;;;;;;;4.82;3.60;;;;;;;16.25;59.04;95761.81;5048175;28;20435;-43
2022/11/20 06:11:05;;;;;;;3.88;3.30;;;;;;;16.21;59.71;95762.38;5043893;28;20072;-42
2022/11/20 06:13:33;;;;;;;5.05;3.63;;;;;;;16.21;60.27;95760.56;5043731;28;20068;-43
2022/11/20 06:16:11;;;;;;;3.25;2.95;;;;;;;15.89;60.15;95767.31;5042539;28;20515;-39
2022/11/20 06:18:40;;;;;;;8.27;3.80;;;;;;;15.83;62.80;95763.63;5045060;28;20083;-44
2022/11/20 06:21:09;;;;;;;5.00;3.75;;;;;;;16.42;58.16;95756.16;5044486;28;20076;-42
2022/11/20 06:23:38;;;;;;;6.45;4.03;;;;;;;16.12;59.22;95759.09;5042485;28;20087;-46
2022/11/20 06:26:08;;;;;;;5.68;3.72;;;;;;;15.85;61.63;95772.19;5041156;28;20072;-44
2022/11/20 06:28:36;;;;;;;4.82;3.67;;;;;;;16.10;58.28;95769.09;5044429;28;20081;-40
2022/11/20 06:31:05;;;;;;;4.30;3.80;;;;;;;16.05;59.53;95771.53;5042098;28;20080;-43
2022/11/20 06:33:35;;;;;;;3.60;3.20;;;;;;;15.17;61.87;95771.00;5044081;28;20080;-46
2022/11/20 06:36:04;;;;;;;4.00;3.33;;;;;;;16.10;59.65;95777.06;5042562;28;20277;-43
2022/11/20 06:38:38;;;;;;;4.80;3.30;;;;;;;15.94;58.27;95770.22;5044258;28;20080;-44
2022/11/20 06:41:07;;;;;;;3.30;3.00;;;;;;;15.93;60.86;95765.91;5043679;28;20073;-41
2022/11/20 06:43:35;;;;;;;3.45;3.15;;;;;;;16.18;58.93;95776.09;5045570;28;20081;-44
2022/11/20 06:46:04;;;;;;;3.60;3.00;;;;;;;16.53;56.95;95776.88;5044479;28;20076;-45
2022/11/20 06:48:32;;;;;;;3.60;3.00;;;;;;;16.05;58.58;95779.50;5047370;28;20085;-45
2022/11/20 06:51:03;;;;;;;4.07;3.05;;;;;;;16.48;57.20;95777.50;5038803;28;20119;-43
2022/11/20 06:53:32;;;;;;;3.28;2.78;;;;;;;16.05;57.23;95790.13;5044312;28;20480;-40
2022/11/20 06:56:00;;;;;;;3.90;3.20;;;;;;;15.69;61.29;95792.94;5043536;28;20088;-46
2022/11/20 06:58:29;;;;;;;3.40;3.10;;;;;;;15.23;64.96;95810.09;5041502;28;20675;-42
2022/11/20 07:00:59;;;;;;;3.20;2.90;;;;;;;15.32;65.73;95806.31;5043491;28;20073;-43
2022/11/20 07:03:28;;;;;;;3.45;2.67;;;;;;;15.50;64.14;95813.00;5040724;28;20080;-40
2022/11/20 07:05:56;;;;;;;4.30;2.90;;;;;;;15.98;62.51;95802.56;5041559;28;20087;-40
2022/11/20 07:08:26;;;;;;;4.13;3.08;;;;;;;16.41;58.15;95797.06;5043396;28;20096;-44
2022/11/20 07:10:58;;;;;;;4.13;2.87;;;;;;;15.84;62.37;95804.31;5044195;28;20084;-39
2022/11/20 07:13:27;;;;;;;3.42;3.03;;;;;;;15.69;63.67;95815.06;5046190;28;20802;-40
2022/11/20 07:15:55;;;;;;;5.50;3.20;;;;;;;16.19;61.19;95809.66;5040422;28;20092;-41
2022/11/20 07:18:24;;;;;;;3.83;3.15;;;;;;;16.50;57.40;95806.56;5043065;28;20078;-42
2022/11/20 07:20:52;;;;;;;3.67;3.15;;;;;;;16.98;55.38;95806.56;5046483;28;20089;-42
2022/11/20 07:23:20;;;;;;;3.67;3.05;;;;;;;17.43;52.39;95805.00;5043279;28;20516;-40
2022/11/20 07:25:50;;;;;;;4.18;2.95;;;;;;;16.58;54.83;95811.69;5042401;28;20112;-41
2022/11/20 07:28:18;;;;;;;4.22;3.03;;;;;;;16.50;56.17;95811.88;5046107;28;20127;-42
2022/11/20 07:30:51;;;;;;;3.20;2.90;;;;;;;17.26;52.93;95799.25;5044234;28;20088;-43
2022/11/20 07:33:19;;;;;;;3.95;3.08;;;;;;;16.90;53.65;95815.56;5044612;28;20076;-41
2022/11/20 07:35:47;;;;;;;4.88;2.92;;;;;;;17.07;52.11;95810.69;5042263;28;20096;-42
2022/11/20 07:38:15;;;;;;;14.45;11.15;;;;;;;17.65;50.70;95805.66;5045186;28;20080;-42
2022/11/20 07:40:44;;;;;;;2.80;2.60;;;;;;;17.32;51.68;95805.63;5046318;28;20100;-40
2022/11/20 07:43:13;;;;;;;3.53;2.70;;;;;;;16.24;54.03;95818.72;5047268;28;20077;-41
2022/11/20 07:45:42;;;;;;;3.38;2.80;;;;;;;17.47;51.16;95811.56;5044332;28;20084;-40
2022/11/20 07:48:10;;;;;;;3.00;2.70;;;;;;;17.14;51.91;95819.53;5049046;28;20081;-39
2022/11/20 07:50:38;;;;;;;3.22;2.80;;;;;;;17.04;52.01;95816.44;5049581;28;20072;-45
2022/11/20 07:53:07;;;;;;;3.90;3.10;;;;;;;17.01;52.28;95817.63;5047337;28;20081;-40
2022/11/20 07:55:35;;;;;;;3.10;2.78;;;;;;;17.36;51.85;95812.19;5049223;28;20080;-44
2022/11/20 07:58:04;;;;;;;4.03;3.10;;;;;;;17.50;51.94;95815.69;5045234;28;20084;-45
2022/11/20 08:00:33;;;;;;;3.15;2.63;;;;;;;17.39;51.36;95810.97;5047253;28;20088;-49
2022/11/20 08:03:04;;;;;;;4.83;3.03;;;;;;;17.17;52.37;95824.47;5046355;28;20079;-42
2022/11/20 08:05:32;;;;;;;4.55;2.80;;;;;;;16.79;52.49;95819.63;5046483;28;20095;-43
2022/11/20 08:08:00;;;;;;;3.25;2.60;;;;;;;17.16;52.14;95816.66;5048187;28;20088;-41
2022/11/20 08:10:29;;;;;;;4.72;2.70;;;;;;;17.36;50.38;95822.03;5042250;28;20080;-42
2022/11/20 08:15:49;;;;;;;3.28;2.45;;;;;;;18.29;48.10;95816.69;5047091;28;20091;-40
2022/11/20 08:18:18;;;;;;;4.40;2.70;;;;;;;17.68;47.83;95809.75;5044891;28;20080;-41
2022/11/20 08:21:04;;;;;;;4.78;3.05;;;;;;;17.72;48.71;95808.28;5049520;28;20081;-42
2022/11/20 08:23:32;;;;;;;3.30;2.88;;;;;;;18.15;47.43;95814.06;5050577;28;20083;-43
2022/11/20 08:26:00;;;;;;;3.83;2.83;;;;;;;18.34;47.13;95811.53;5047338;28;20080;-45
2022/11/20 08:28:29;;;;;;;3.25;2.80;;;;;;;18.37;46.55;95809.28;5047455;28;20085;-41
2022/11/20 08:31:00;;;;;;;2.30;2.03;;;;;;;16.40;49.94;95816.75;5045581;28;20072;-43
2022/11/20 08:33:29;;;;;;;3.53;3.13;;;;;;;17.38;50.25;95811.97;5048009;28;20069;-43
2022/11/20 08:36:00;;;;;;;3.65;2.72;;;;;;;16.58;51.68;95820.50;5047667;28;20107;-45
2022/11/20 08:38:28;;;;;;;;;;;;;;;16.35;50.77;95820.81;5049450;28;20561;-46
2022/11/20 08:43:44;;;;;;;2.70;2.28;;;;;;;16.17;53.50;95817.81;5051074;28;20453;-44
2022/11/20 08:46:13;;;;;;;4.00;2.60;;;;;;;16.02;54.97;95825.91;5047774;28;20087;-42
2022/11/20 08:48:42;;;;;;;2.83;2.38;;;;;;;16.24;53.63;95820.53;5047188;28;20774;-40
2022/11/20 08:51:10;;;;;;;3.25;2.80;;;;;;;16.37;54.58;95817.94;5047778;28;20091;-39
2022/11/20 08:53:39;;;;;;;3.65;2.58;;;;;;;16.20;53.05;95822.75;5044515;28;20081;-44
2022/11/20 08:56:09;;;;;;;4.25;3.17;;;;;;;16.90;51.94;95815.56;5046080;28;20077;-45
2022/11/20 08:58:38;;;;;;;4.68;3.10;;;;;;;17.22;50.62;95810.53;5043536;28;20079;-44
2022/11/20 09:01:27;;;;;;;3.42;2.42;;;;;;;16.41;51.70;95823.69;5041305;28;20076;-41
2022/11/20 09:03:57;;;;;;;4.00;2.67;;;;;;;16.13;54.26;95816.56;5047314;28;20091;-46
2022/11/20 09:06:25;;;;;;;3.17;2.50;;;;;;;16.84;52.32;95816.34;5042453;28;20087;-40
2022/11/20 09:08:53;;;;;;;3.40;2.70;;;;;;;16.63;53.72;95813.78;5043544;28;20084;-41
2022/11/20 09:11:22;;;;;;;6.22;3.45;;;;;;;16.75;51.61;95809.53;5047884;28;20473;-42
2022/11/20 09:13:50;;;;;;;4.88;2.95;;;;;;;16.91;51.05;95811.06;5049840;28;20069;-42
2022/11/20 09:16:19;;;;;;;4.10;3.17;;;;;;;17.75;49.92;95805.22;5045454;28;20076;-42
2022/11/20 09:18:50;;;;;;;3.00;2.70;;;;;;;17.30;51.55;95811.13;5044750;28;20083;-42
2022/11/20 09:21:39;;;;;;;6.60;2.60;;;;;;;17.40;49.64;95813.41;5044269;28;20076;-45
2022/11/20 09:24:07;;;;;;;4.35;2.70;;;;;;;16.79;51.93;95819.63;5044272;28;20084;-41
2022/11/20 09:26:36;;;;;;;3.60;2.53;;;;;;;17.60;49.91;95804.63;5049195;28;20080;-42
2022/11/20 09:29:04;;;;;;;2.92;2.47;;;;;;;16.74;51.32;95810.53;5046248;28;20083;-39
2022/11/20 09:31:37;;;;;;;3.17;2.55;;;;;;;17.42;50.46;95803.38;5038296;28;20539;-44
2022/11/20 09:34:07;;;;;;;2.83;2.03;;;;;;;16.82;51.54;95810.41;5045136;28;20081;-47
2022/11/20 09:36:35;;;;;;;6.47;2.30;;;;;;;17.54;50.25;95804.41;5048263;28;20084;-48
2022/11/20 09:39:03;;;;;;;2.92;2.15;;;;;;;17.37;50.01;95810.34;5044583;28;20084;-40
2022/11/20 09:41:49;;;;;;;4.18;2.30;;;;;;;18.31;47.84;95796.78;5046978;28;20085;-45
2022/11/20 09:44:30;;;;;;;2.40;1.92;;;;;;;17.49;49.51;95803.38;5045597;28;20080;-43
2022/11/20 09:47:02;;;;;;;1.83;1.23;;;;;;;16.94;49.48;95792.81;5046984;28;20088;-41
2022/11/20 09:49:43;;;;;;;4.53;1.98;;;;;;;17.87;49.82;95789.47;5044220;28;20088;-41
2022/11/20 09:52:21;;;;;;;3.78;1.80;;;;;;;17.52;49.55;95801.13;5046166;28;20085;-45
2022/11/20 09:54:50;;;;;;;2.40;1.67;;;;;;;17.70;49.55;95787.19;5046988;28;20107;-39
2022/11/20 09:57:20;;;;;;;2.72;1.55;;;;;;;17.33;50.88;95797.41;5043625;28;20080;-41
2022/11/20 09:59:51;;;;;;;4.60;2.50;;;;;;;17.16;50.02;95788.16;5044779;28;20092;-41
2022/11/20 10:02:28;;;;;;;3.55;1.85;;;;;;;18.34;48.58;95785.69;5043304;28;20080;-44
2022/11/20 10:05:00;;;;;;;4.57;2.53;;;;;;;18.43;46.84;95781.75;5045264;28;20107;-42
2022/11/20 10:07:31;;;;;;;3.65;2.47;;;;;;;18.32;47.54;95787.75;5045853;28;20095;-42
2022/11/20 10:10:00;;;;;;;3.30;2.25;;;;;;;17.59;48.66;95773.66;5049319;28;20089;-40
2022/11/20 10:12:37;;;;;;;3.60;2.25;;;;;;;17.62;48.83;95776.72;5045634;28;20089;-44
2022/11/20 10:15:13;;;;;;;2.33;2.00;;;;;;;18.31;49.28;95778.09;5049589;28;20465;-44
2022/11/20 10:18:01;;;;;;;4.05;2.30;;;;;;;18.54;47.88;95777.59;5049405;28;20547;-46
2022/11/20 10:20:37;;;;;;;2.22;1.90;;;;;;;17.99;48.52;95785.94;5049975;28;20081;-46
2022/11/20 10:23:22;;;;;;;4.85;2.20;;;;;;;18.15;48.63;95790.03;5049817;28;20746;-42
2022/11/20 10:25:57;;;;;;;3.13;1.95;;;;;;;17.46;51.32;95787.78;5046549;28;20080;-41
2022/11/20 10:28:44;;;;;;;2.38;1.63;;;;;;;17.42;51.84;95784.72;5048734;28;20081;-40
2022/11/20 10:31:29;;;;;;;2.78;1.75;;;;;;;17.55;49.86;95783.91;5035879;28;20084;-43
2022/11/20 10:34:00;;;;;;;2.00;1.67;;;;;;;17.55;52.49;95778.59;5045558;28;20073;-42
2022/11/20 10:36:50;;;;;;;;;;;;;;;17.56;51.08;95772.22;5043336;28;20515;-41
2022/11/20 10:39:23;;;;;;;1.88;1.60;;;;;;;17.30;52.85;95783.66;5044435;28;19971;-41
2022/11/20 10:41:53;;;;;;;2.22;1.40;;;;;;;16.91;54.78;95784.41;5045757;28;20072;-43
2022/11/20 10:47:14;;;;;;;2.50;1.73;;;;;;;17.54;53.83;95780.41;5042686;28;20095;-44
2022/11/20 10:49:43;;;;;;;4.25;2.10;;;;;;;18.49;51.55;95775.56;5044884;28;20088;-43
2022/11/20 10:52:19;;;;;;;2.47;1.80;;;;;;;17.93;52.39;95778.78;5041777;28;20076;-44
2022/11/20 10:54:53;;;;;;;1.25;1.10;;;;;;;16.84;54.26;95774.56;5043458;28;20072;-44
2022/11/20 10:57:30;;;;;;;1.58;1.20;;;;;;;16.76;57.72;95782.75;5044357;28;20075;-43
2022/11/20 11:00:04;;;;;;;1.63;1.40;;;;;;;16.82;57.58;95773.94;5046595;28;20083;-41
2022/11/20 11:02:35;;;;;;;2.08;1.52;;;;;;;17.09;58.02;95768.69;5045861;28;20084;-44
2022/11/20 11:05:11;;;;;;;1.70;1.40;;;;;;;16.86;55.93;95771.69;5045837;28;20076;-41
2022/11/20 11:07:43;;;;;;;1.45;0.95;;;;;;;16.81;57.94;95760.84;5046050;28;20072;-42
2022/11/20 11:10:18;;;;;;;1.23;0.80;;;;;;;17.38;55.16;95750.66;5048618;28;20084;-40
2022/11/20 11:12:47;;;;;;;1.40;1.27;;;;;;;17.69;53.58;95750.88;5048185;28;20130;-41
2022/11/20 11:15:26;;;;;;;1.50;1.13;;;;;;;17.06;54.47;95740.59;5043378;28;20088;-50
2022/11/20 11:17:55;;;;;;;1.30;1.10;;;;;;;17.01;57.85;95753.72;5043071;28;20084;-42
2022/11/20 11:20:24;;;;;;;1.52;1.27;;;;;;;16.23;59.47;95750.53;5047127;28;20087;-46
2022/11/20 11:22:56;;;;;;;1.55;1.10;;;;;;;16.01;59.50;95733.84;5044917;28;20080;-41
2022/11/20 11:25:27;;;;;;;1.10;1.00;;;;;;;16.76;56.02;95728.69;5041920;28;20144;-45
2022/11/20 11:27:57;;;;;;;1.13;1.02;;;;;;;16.59;56.26;95746.81;5043449;28;20091;-42
2022/11/20 11:30:27;;;;;;;2.38;1.10;;;;;;;16.66;58.17;95741.50;5043888;28;20081;-40
2022/11/20 11:33:06;;;;;;;1.83;1.08;;;;;;;16.96;56.35;95732.16;5046215;28;20076;-45
2022/11/20 11:35:34;;;;;;;1.83;1.10;;;;;;;16.79;56.39;95730.91;5043750;28;20503;-44
2022/11/20 11:38:11;;;;;;;1.98;1.33;;;;;;;16.78;57.31;95724.78;5043356;28;20072;-41
2022/11/20 11:40:41;;;;;;;1.67;0.95;;;;;;;16.99;58.46;95737.09;5043917;28;20076;-43
2022/11/20 11:46:10;;;;;;;1.55;0.93;;;;;;;16.98;57.09;95724.00;5044321;28;20117;-46
2022/11/20 11:48:38;;;;;;;1.63;0.90;;;;;;;17.55;55.64;95723.41;5043477;28;20072;-43
2022/11/20 11:51:09;;;;;;;1.85;1.00;;;;;;;17.61;54.93;95718.28;5044306;28;20080;-40
2022/11/20 11:53:42;;;;;;;2.05;1.17;;;;;;;17.52;51.53;95720.34;5042977;28;21631;-46
2022/11/20 11:56:12;;;;;;;0.77;0.70;;;;;;;17.75;52.52;95728.69;5045601;28;20557;-39
2022/11/20 11:58:46;;;;;;;1.55;0.82;;;;;;;17.02;53.89;95719.91;5043228;28;20091;-43
2022/11/20 12:01:26;;;;;;;0.98;0.82;;;;;;;16.50;58.19;95737.34;5042608;28;20097;-44